sensor_id;sensor_type;location;lat;lon;timestamp;P1;durP1;ratioP1;P2;durP2;ratioP2
61570;SDS011;47463;49.884;10.010;2024-01-30T00:00:00;14.6;;;14.6;;
61570;SDS011;47463;49.884;10.010;2024-01-30T00:05:00;16.5;;;15.1;;
61570;SDS011;47463;49.884;10.010;2024-01-30T00:10:00;16.5;;;15.1;;
61570;SDS011;47463;49.884;10.010;2024-01-30T00:15:00;15.1;;;15;;
61570;SDS011;47463;49.884;10.010;2024-01-30T00:20:00;14.9;;;14.1;;
61570;SDS011;47463;49.884;10.010;2024-01-30T00:25:00;14.2;;;14.2;;
61570;SDS011;47463;49.884;10.010;2024-01-30T00:30:00;13.4;;;14.5;;
61570;SDS011;47463;49.884;10.010;2024-01-30T00:35:00;14.7;;;14.9;;
61570;SDS011;47463;49.884;10.010;2024-01-30T00:40:00;14.7;;;14.9;;
61570;SDS011;47463;49.884;10.010;2024-01-30T00:45:00;13;;;14.4;;
61570;SDS011;47463;49.884;10.010;2024-01-30T00:50:00;14.9;;;15;;
61570;SDS011;47463;49.884;10.010;2024-01-30T00:55:00;13.6;;;14.9;;
61570;SDS011;47463;49.884;10.010;2024-01-30T01:00:00;16.7;;;15;;
61570;SDS011;47463;49.884;10.010;2024-01-30T01:05:00;16;;;15.3;;
61570;SDS011;47463;49.884;10.010;2024-01-30T01:10:00;16;;;15.3;;
61570;SDS011;47463;49.884;10.010;2024-01-30T01:15:00;15.5;;;14.5;;
61570;SDS011;47463;49.884;10.010;2024-01-30T01:20:00;13.4;;;14.3;;
61570;SDS011;47463;49.884;10.010;2024-01-30T01:25:00;13.7;;;14.8;;
61570;SDS011;47463;49.884;10.010;2024-01-30T01:30:00;12.5;;;14.4;;
61570;SDS011;47463;49.884;10.010;2024-01-30T01:35:00;12;;;14.7;;
61570;SDS011;47463;49.884;10.010;2024-01-30T01:40:00;12;;;14.7;;
61570;SDS011;47463;49.884;10.010;2024-01-30T01:45:00;15;;;14.7;;
61570;SDS011;47463;49.884;10.010;2024-01-30T01:50:00;15.3;;;15;;
61570;SDS011;47463;49.884;10.010;2024-01-30T01:55:00;14.5;;;14.6;;
61570;SDS011;47463;49.884;10.010;2024-01-30T02:00:00;14.2;;;14;;
61570;SDS011;47463;49.884;10.010;2024-01-30T02:05:00;13.6;;;14.9;;
61570;SDS011;47463;49.884;10.010;2024-01-30T02:10:00;13.6;;;14.9;;
61570;SDS011;47463;49.884;10.010;2024-01-30T02:15:00;14.9;;;14.9;;
61570;SDS011;47463;49.884;10.010;2024-01-30T02:20:00;16.4;;;15.4;;
61570;SDS011;47463;49.884;10.010;2024-01-30T02:25:00;13;;;14.3;;
61570;SDS011;47463;49.884;10.010;2024-01-30T02:30:00;14;;;14.7;;
61570;SDS011;47463;49.884;10.010;2024-01-30T02:35:00;15.7;;;14.6;;
61570;SDS011;47463;49.884;10.010;2024-01-30T02:40:00;15.7;;;14.6;;
61570;SDS011;47463;49.884;10.010;2024-01-30T02:45:00;13.4;;;14.2;;
61570;SDS011;47463;49.884;10.010;2024-01-30T02:50:00;14.4;;;14.4;;
61570;SDS011;47463;49.884;10.010;2024-01-30T02:55:00;11.3;;;14;;
61570;SDS011;47463;49.884;10.010;2024-01-30T03:00:00;13.8;;;14.5;;
61570;SDS011;47463;49.884;10.010;2024-01-30T03:05:00;13.8;;;14.9;;
61570;SDS011;47463;49.884;10.010;2024-01-30T03:10:00;13.8;;;14.9;;
61570;SDS011;47463;49.884;10.010;2024-01-30T03:15:00;15.3;;;15;;
61570;SDS011;47463;49.884;10.010;2024-01-30T03:20:00;13.7;;;14.7;;
61570;SDS011;47463;49.884;10.010;2024-01-30T03:25:00;15.9;;;15.2;;
61570;SDS011;47463;49.884;10.010;2024-01-30T03:30:00;14.7;;;14.7;;
61570;SDS011;47463;49.884;10.010;2024-01-30T03:35:00;14.9;;;14.9;;
61570;SDS011;47463;49.884;10.010;2024-01-30T03:40:00;14.9;;;14.9;;
61570;SDS011;47463;49.884;10.010;2024-01-30T03:45:00;13.3;;;14.4;;
61570;SDS011;47463;49.884;10.010;2024-01-30T03:50:00;12.5;;;14.4;;
61570;SDS011;47463;49.884;10.010;2024-01-30T03:55:00;13;;;15;;
61570;SDS011;47463;49.884;10.010;2024-01-30T04:00:00;13.8;;;14.6;;
61570;SDS011;47463;49.884;10.010;2024-01-30T04:05:00;13.2;;;14.3;;
61570;SDS011;47463;49.884;10.010;2024-01-30T04:10:00;13.2;;;14.3;;
61570;SDS011;47463;49.884;10.010;2024-01-30T04:15:00;14.8;;;14.8;;
61570;SDS011;47463;49.884;10.010;2024-01-30T04:20:00;13.9;;;14.6;;
61570;SDS011;47463;49.884;10.010;2024-01-30T04:25:00;15.5;;;14.7;;
61570;SDS011;47463;49.884;10.010;2024-01-30T04:30:00;14.5;;;14.5;;
61570;SDS011;47463;49.884;10.010;2024-01-30T04:35:00;15.6;;;14.9;;
61570;SDS011;47463;49.884;10.010;2024-01-30T04:40:00;15.6;;;14.9;;
61570;SDS011;47463;49.884;10.010;2024-01-30T04:45:00;16.3;;;15.1;;
61570;SDS011;47463;49.884;10.010;2024-01-30T04:50:00;13.4;;;14.5;;
61570;SDS011;47463;49.884;10.010;2024-01-30T04:55:00;16.4;;;15.8;;
61570;SDS011;47463;49.884;10.010;2024-01-30T05:00:00;13.8;;;14.8;;
61570;SDS011;47463;49.884;10.010;2024-01-30T05:05:00;15.8;;;15.2;;
61570;SDS011;47463;49.884;10.010;2024-01-30T05:10:00;15.8;;;15.2;;
61570;SDS011;47463;49.884;10.010;2024-01-30T05:15:00;15.8;;;14.9;;
61570;SDS011;47463;49.884;10.010;2024-01-30T05:20:00;15;;;14.3;;
61570;SDS011;47463;49.884;10.010;2024-01-30T05:25:00;15;;;14.7;;
61570;SDS011;47463;49.884;10.010;2024-01-30T05:30:00;14.4;;;15;;
61570;SDS011;47463;49.884;10.010;2024-01-30T05:35:00;18.7;;;15.2;;
61570;SDS011;47463;49.884;10.010;2024-01-30T05:40:00;18.7;;;15.2;;
61570;SDS011;47463;49.884;10.010;2024-01-30T05:45:00;15.5;;;15;;
61570;SDS011;47463;49.884;10.010;2024-01-30T05:50:00;13.6;;;14.8;;
61570;SDS011;47463;49.884;10.010;2024-01-30T05:55:00;13.1;;;14;;
61570;SDS011;47463;49.884;10.010;2024-01-30T06:00:00;18.1;;;15.1;;
61570;SDS011;47463;49.884;10.010;2024-01-30T06:05:00;16.6;;;15;;
61570;SDS011;47463;49.884;10.010;2024-01-30T06:10:00;16.6;;;15;;
61570;SDS011;47463;49.884;10.010;2024-01-30T06:15:00;14.3;;;15;;
61570;SDS011;47463;49.884;10.010;2024-01-30T06:20:00;16;;;16.2;;
61570;SDS011;47463;49.884;10.010;2024-01-30T06:25:00;15.9;;;15.6;;
61570;SDS011;47463;49.884;10.010;2024-01-30T06:30:00;15.3;;;15.9;;
61570;SDS011;47463;49.884;10.010;2024-01-30T06:35:00;16;;;15.9;;
61570;SDS011;47463;49.884;10.010;2024-01-30T06:40:00;16;;;15.9;;
61570;SDS011;47463;49.884;10.010;2024-01-30T06:45:00;15.3;;;15.8;;
61570;SDS011;47463;49.884;10.010;2024-01-30T06:50:00;16.1;;;15.6;;
61570;SDS011;47463;49.884;10.010;2024-01-30T06:55:00;16.8;;;15.2;;
61570;SDS011;47463;49.884;10.010;2024-01-30T07:00:00;14.9;;;15.7;;
61570;SDS011;47463;49.884;10.010;2024-01-30T07:05:00;15.7;;;15.5;;
61570;SDS011;47463;49.884;10.010;2024-01-30T07:10:00;15.7;;;15.5;;
61570;SDS011;47463;49.884;10.010;2024-01-30T07:15:00;17.5;;;15.5;;
61570;SDS011;47463;49.884;10.010;2024-01-30T07:20:00;16.9;;;15.2;;
61570;SDS011;47463;49.884;10.010;2024-01-30T07:25:00;18.5;;;15.9;;
61570;SDS011;47463;49.884;10.010;2024-01-30T07:30:00;16.3;;;15.8;;
61570;SDS011;47463;49.884;10.010;2024-01-30T07:35:00;17.7;;;16.1;;
61570;SDS011;47463;49.884;10.010;2024-01-30T07:40:00;17.7;;;16.1;;
61570;SDS011;47463;49.884;10.010;2024-01-30T07:45:00;16.2;;;15.9;;
61570;SDS011;47463;49.884;10.010;2024-01-30T07:50:00;14.9;;;16;;
61570;SDS011;47463;49.884;10.010;2024-01-30T07:55:00;14;;;16.1;;
61570;SDS011;47463;49.884;10.010;2024-01-30T08:00:00;14.9;;;15.4;;
61570;SDS011;47463;49.884;10.010;2024-01-30T08:05:00;18.9;;;16.5;;
61570;SDS011;47463;49.884;10.010;2024-01-30T08:10:00;18.9;;;16.5;;
61570;SDS011;47463;49.884;10.010;2024-01-30T08:15:00;18.8;;;16.4;;
61570;SDS011;47463;49.884;10.010;2024-01-30T08:20:00;18.5;;;16.5;;
61570;SDS011;47463;49.884;10.010;2024-01-30T08:25:00;19.4;;;17.8;;
61570;SDS011;47463;49.884;10.010;2024-01-30T08:30:00;51.6;;;28.1;;
61570;SDS011;47463;49.884;10.010;2024-01-30T08:35:00;20.6;;;17.4;;
61570;SDS011;47463;49.884;10.010;2024-01-30T08:40:00;20.6;;;17.4;;
61570;SDS011;47463;49.884;10.010;2024-01-30T08:45:00;17.8;;;16.2;;
61570;SDS011;47463;49.884;10.010;2024-01-30T08:50:00;14.7;;;14.9;;
61570;SDS011;47463;49.884;10.010;2024-01-30T08:55:00;15.2;;;15.2;;
61570;SDS011;47463;49.884;10.010;2024-01-30T09:00:00;12.7;;;15.4;;
61570;SDS011;47463;49.884;10.010;2024-01-30T09:05:00;15.1;;;15.6;;
61570;SDS011;47463;49.884;10.010;2024-01-30T09:10:00;15.1;;;15.6;;
61570;SDS011;47463;49.884;10.010;2024-01-30T09:15:00;14.3;;;15.8;;
61570;SDS011;47463;49.884;10.010;2024-01-30T09:20:00;14.3;;;15.2;;
61570;SDS011;47463;49.884;10.010;2024-01-30T09:25:00;15.8;;;15.3;;
61570;SDS011;47463;49.884;10.010;2024-01-30T09:30:00;15.4;;;15.7;;
61570;SDS011;47463;49.884;10.010;2024-01-30T09:35:00;16.3;;;16.2;;
61570;SDS011;47463;49.884;10.010;2024-01-30T09:40:00;16.3;;;16.2;;
61570;SDS011;47463;49.884;10.010;2024-01-30T09:45:00;18.5;;;17.8;;
61570;SDS011;47463;49.884;10.010;2024-01-30T09:50:00;16.9;;;16.8;;
61570;SDS011;47463;49.884;10.010;2024-01-30T09:55:00;15.6;;;16.6;;
61570;SDS011;47463;49.884;10.010;2024-01-30T10:00:00;16.1;;;16.3;;
61570;SDS011;47463;49.884;10.010;2024-01-30T10:05:00;15.8;;;16.4;;
61570;SDS011;47463;49.884;10.010;2024-01-30T10:10:00;15.8;;;16.4;;
61570;SDS011;47463;49.884;10.010;2024-01-30T10:15:00;17.4;;;16.8;;
61570;SDS011;47463;49.884;10.010;2024-01-30T10:20:00;15.2;;;16.4;;
61570;SDS011;47463;49.884;10.010;2024-01-30T10:25:00;15.5;;;16.3;;
61570;SDS011;47463;49.884;10.010;2024-01-30T10:30:00;15.1;;;15.9;;
61570;SDS011;47463;49.884;10.010;2024-01-30T10:35:00;15.8;;;17.2;;
61570;SDS011;47463;49.884;10.010;2024-01-30T10:40:01;15.8;;;17.2;;
61570;SDS011;47463;49.884;10.010;2024-01-30T10:45:00;15.7;;;15.8;;
61570;SDS011;47463;49.884;10.010;2024-01-30T10:50:00;14.6;;;16.1;;
61570;SDS011;47463;49.884;10.010;2024-01-30T10:55:00;15.3;;;16.7;;
61570;SDS011;47463;49.884;10.010;2024-01-30T11:00:00;16.6;;;16.9;;
61570;SDS011;47463;49.884;10.010;2024-01-30T11:05:00;16.7;;;17.1;;
61570;SDS011;47463;49.884;10.010;2024-01-30T11:10:01;16.7;;;17.1;;
61570;SDS011;47463;49.884;10.010;2024-01-30T11:15:01;16.3;;;17.9;;
61570;SDS011;47463;49.884;10.010;2024-01-30T11:20:00;16.3;;;17.2;;
61570;SDS011;47463;49.884;10.010;2024-01-30T11:25:00;15.5;;;17.2;;
61570;SDS011;47463;49.884;10.010;2024-01-30T11:30:01;14.6;;;16.8;;
61570;SDS011;47463;49.884;10.010;2024-01-30T11:35:00;17.4;;;17.6;;
61570;SDS011;47463;49.884;10.010;2024-01-30T11:40:00;17.4;;;17.6;;
61570;SDS011;47463;49.884;10.010;2024-01-30T11:45:00;19.4;;;17.6;;
61570;SDS011;47463;49.884;10.010;2024-01-30T11:50:00;16.5;;;17.5;;
61570;SDS011;47463;49.884;10.010;2024-01-30T11:55:00;17;;;18.1;;
61570;SDS011;47463;49.884;10.010;2024-01-30T12:00:00;19.7;;;18.9;;
61570;SDS011;47463;49.884;10.010;2024-01-30T12:05:02;17.6;;;17.8;;
61570;SDS011;47463;49.884;10.010;2024-01-30T12:10:00;17.6;;;17.8;;
61570;SDS011;47463;49.884;10.010;2024-01-30T12:15:00;18.1;;;17.9;;
61570;SDS011;47463;49.884;10.010;2024-01-30T12:20:02;18;;;18.1;;
61570;SDS011;47463;49.884;10.010;2024-01-30T12:25:00;16.6;;;18.1;;
61570;SDS011;47463;49.884;10.010;2024-01-30T12:30:00;17.8;;;18.3;;
61570;SDS011;47463;49.884;10.010;2024-01-30T12:35:00;18.4;;;18.5;;
61570;SDS011;47463;49.884;10.010;2024-01-30T12:40:00;18.4;;;18.5;;
61570;SDS011;47463;49.884;10.010;2024-01-30T12:45:00;17.6;;;18.1;;
61570;SDS011;47463;49.884;10.010;2024-01-30T12:50:00;18;;;18;;
61570;SDS011;47463;49.884;10.010;2024-01-30T12:55:00;20;;;18.1;;
61570;SDS011;47463;49.884;10.010;2024-01-30T13:00:00;16.5;;;17.7;;
61570;SDS011;47463;49.884;10.010;2024-01-30T13:05:00;18.8;;;17.8;;
61570;SDS011;47463;49.884;10.010;2024-01-30T13:10:00;18.8;;;17.8;;
61570;SDS011;47463;49.884;10.010;2024-01-30T13:15:00;17.3;;;17.7;;
61570;SDS011;47463;49.884;10.010;2024-01-30T13:20:00;17.2;;;18.4;;
61570;SDS011;47463;49.884;10.010;2024-01-30T13:25:00;20.2;;;18.4;;
61570;SDS011;47463;49.884;10.010;2024-01-30T13:30:00;21;;;19.3;;
61570;SDS011;47463;49.884;10.010;2024-01-30T13:35:00;17.8;;;18.8;;
61570;SDS011;47463;49.884;10.010;2024-01-30T13:40:00;17.8;;;18.8;;
61570;SDS011;47463;49.884;10.010;2024-01-30T13:45:00;17.1;;;18.3;;
61570;SDS011;47463;49.884;10.010;2024-01-30T13:50:00;17.9;;;18.6;;
61570;SDS011;47463;49.884;10.010;2024-01-30T13:55:00;19.9;;;19;;
61570;SDS011;47463;49.884;10.010;2024-01-30T14:00:00;17.9;;;18.2;;
61570;SDS011;47463;49.884;10.010;2024-01-30T14:05:00;19.5;;;19.4;;
61570;SDS011;47463;49.884;10.010;2024-01-30T14:10:00;19.5;;;19.4;;
61570;SDS011;47463;49.884;10.010;2024-01-30T14:15:00;19.4;;;18.9;;
61570;SDS011;47463;49.884;10.010;2024-01-30T14:20:00;18.6;;;18.9;;
61570;SDS011;47463;49.884;10.010;2024-01-30T14:25:00;17.7;;;19.1;;
61570;SDS011;47463;49.884;10.010;2024-01-30T14:30:00;16.2;;;18.8;;
61570;SDS011;47463;49.884;10.010;2024-01-30T14:35:00;19.6;;;19.4;;
61570;SDS011;47463;49.884;10.010;2024-01-30T14:40:00;19.6;;;19.4;;
61570;SDS011;47463;49.884;10.010;2024-01-30T14:45:00;18.7;;;18.5;;
61570;SDS011;47463;49.884;10.010;2024-01-30T14:50:00;22.2;;;20.5;;
61570;SDS011;47463;49.884;10.010;2024-01-30T14:55:00;20.1;;;20.1;;
61570;SDS011;47463;49.884;10.010;2024-01-30T15:00:00;22.4;;;19.9;;
61570;SDS011;47463;49.884;10.010;2024-01-30T15:05:00;19.8;;;20.1;;
61570;SDS011;47463;49.884;10.010;2024-01-30T15:10:00;19.8;;;20.1;;
61570;SDS011;47463;49.884;10.010;2024-01-30T15:15:00;21.9;;;20.7;;
61570;SDS011;47463;49.884;10.010;2024-01-30T15:20:00;19.6;;;19.8;;
61570;SDS011;47463;49.884;10.010;2024-01-30T15:25:00;21.3;;;20.5;;
61570;SDS011;47463;49.884;10.010;2024-01-30T15:30:00;20.8;;;20.7;;
61570;SDS011;47463;49.884;10.010;2024-01-30T15:35:00;23;;;21;;
61570;SDS011;47463;49.884;10.010;2024-01-30T15:40:00;23;;;21;;
61570;SDS011;47463;49.884;10.010;2024-01-30T15:45:00;21.2;;;21;;
61570;SDS011;47463;49.884;10.010;2024-01-30T15:50:00;20.2;;;20.8;;
61570;SDS011;47463;49.884;10.010;2024-01-30T15:55:00;25.4;;;21.6;;
61570;SDS011;47463;49.884;10.010;2024-01-30T16:00:00;85.4;;;24.9;;
61570;SDS011;47463;49.884;10.010;2024-01-30T16:05:00;21.5;;;21;;
61570;SDS011;47463;49.884;10.010;2024-01-30T16:10:00;21.5;;;21;;
61570;SDS011;47463;49.884;10.010;2024-01-30T16:15:00;19.9;;;20.2;;
61570;SDS011;47463;49.884;10.010;2024-01-30T16:20:00;21.2;;;20.2;;
61570;SDS011;47463;49.884;10.010;2024-01-30T16:25:00;22.8;;;20.2;;
61570;SDS011;47463;49.884;10.010;2024-01-30T16:30:00;18.4;;;18.8;;
61570;SDS011;47463;49.884;10.010;2024-01-30T16:35:00;18.8;;;18.1;;
61570;SDS011;47463;49.884;10.010;2024-01-30T16:40:00;18.8;;;18.1;;
61570;SDS011;47463;49.884;10.010;2024-01-30T16:45:00;20.4;;;17.2;;
61570;SDS011;47463;49.884;10.010;2024-01-30T16:50:00;16.4;;;16.6;;
61570;SDS011;47463;49.884;10.010;2024-01-30T16:55:00;15.5;;;16.6;;
61570;SDS011;47463;49.884;10.010;2024-01-30T17:00:00;17.8;;;18.3;;
61570;SDS011;47463;49.884;10.010;2024-01-30T17:05:00;20.5;;;18.9;;
61570;SDS011;47463;49.884;10.010;2024-01-30T17:10:00;20.5;;;18.9;;
61570;SDS011;47463;49.884;10.010;2024-01-30T17:15:00;20.9;;;19.2;;
61570;SDS011;47463;49.884;10.010;2024-01-30T17:20:00;22.6;;;21.4;;
61570;SDS011;47463;49.884;10.010;2024-01-30T17:25:00;20.1;;;19.5;;
61570;SDS011;47463;49.884;10.010;2024-01-30T17:30:00;24.6;;;21.7;;
61570;SDS011;47463;49.884;10.010;2024-01-30T17:35:00;23.4;;;21;;
61570;SDS011;47463;49.884;10.010;2024-01-30T17:40:00;23.4;;;21;;
61570;SDS011;47463;49.884;10.010;2024-01-30T17:45:00;22.1;;;20.3;;
61570;SDS011;47463;49.884;10.010;2024-01-30T17:50:00;22.5;;;20;;
61570;SDS011;47463;49.884;10.010;2024-01-30T17:55:00;22.9;;;20.6;;
61570;SDS011;47463;49.884;10.010;2024-01-30T18:00:00;24.1;;;21.7;;
61570;SDS011;47463;49.884;10.010;2024-01-30T18:05:00;32.6;;;24.6;;
61570;SDS011;47463;49.884;10.010;2024-01-30T18:10:00;32.6;;;24.6;;
61570;SDS011;47463;49.884;10.010;2024-01-30T18:15:00;23.3;;;21.6;;
61570;SDS011;47463;49.884;10.010;2024-01-30T18:20:00;22.7;;;20.6;;
61570;SDS011;47463;49.884;10.010;2024-01-30T18:25:00;22.9;;;21.9;;
61570;SDS011;47463;49.884;10.010;2024-01-30T18:30:00;28.1;;;23.2;;
61570;SDS011;47463;49.884;10.010;2024-01-30T18:35:00;31.3;;;23.2;;
61570;SDS011;47463;49.884;10.010;2024-01-30T18:40:00;31.3;;;23.2;;
61570;SDS011;47463;49.884;10.010;2024-01-30T18:45:00;25.7;;;22;;
61570;SDS011;47463;49.884;10.010;2024-01-30T18:50:00;26.2;;;21.6;;
61570;SDS011;47463;49.884;10.010;2024-01-30T18:55:00;24.7;;;22.1;;
61570;SDS011;47463;49.884;10.010;2024-01-30T19:00:00;25;;;21.7;;
61570;SDS011;47463;49.884;10.010;2024-01-30T19:05:00;24.8;;;22.9;;
61570;SDS011;47463;49.884;10.010;2024-01-30T19:10:00;24.8;;;22.9;;
61570;SDS011;47463;49.884;10.010;2024-01-30T19:15:00;25;;;22.7;;
61570;SDS011;47463;49.884;10.010;2024-01-30T19:20:00;29.6;;;23.2;;
61570;SDS011;47463;49.884;10.010;2024-01-30T19:25:00;26.3;;;22.9;;
61570;SDS011;47463;49.884;10.010;2024-01-30T19:30:00;29.2;;;25.8;;
61570;SDS011;47463;49.884;10.010;2024-01-30T19:35:00;29.9;;;24.2;;
61570;SDS011;47463;49.884;10.010;2024-01-30T19:40:00;29.9;;;24.2;;
61570;SDS011;47463;49.884;10.010;2024-01-30T19:45:00;28.3;;;24.1;;
61570;SDS011;47463;49.884;10.010;2024-01-30T19:50:00;25.3;;;23.3;;
61570;SDS011;47463;49.884;10.010;2024-01-30T19:55:00;27.9;;;24.6;;
61570;SDS011;47463;49.884;10.010;2024-01-30T20:00:00;29;;;23.2;;
61570;SDS011;47463;49.884;10.010;2024-01-30T20:05:00;27.4;;;23.9;;
61570;SDS011;47463;49.884;10.010;2024-01-30T20:10:00;27.4;;;23.9;;
61570;SDS011;47463;49.884;10.010;2024-01-30T20:15:00;29.3;;;25.2;;
61570;SDS011;47463;49.884;10.010;2024-01-30T20:20:00;31.5;;;25.3;;
61570;SDS011;47463;49.884;10.010;2024-01-30T20:25:00;28.2;;;23.7;;
61570;SDS011;47463;49.884;10.010;2024-01-30T20:30:00;25;;;22.6;;
61570;SDS011;47463;49.884;10.010;2024-01-30T20:35:00;27.6;;;23.8;;
61570;SDS011;47463;49.884;10.010;2024-01-30T20:40:00;27.6;;;23.8;;
61570;SDS011;47463;49.884;10.010;2024-01-30T20:45:01;26.3;;;22.2;;
61570;SDS011;47463;49.884;10.010;2024-01-30T20:50:00;23.5;;;21.9;;
61570;SDS011;47463;49.884;10.010;2024-01-30T20:55:00;23.9;;;21.9;;
61570;SDS011;47463;49.884;10.010;2024-01-30T21:00:00;25.2;;;23.2;;
61570;SDS011;47463;49.884;10.010;2024-01-30T21:05:00;25.6;;;23.2;;
61570;SDS011;47463;49.884;10.010;2024-01-30T21:10:00;25.6;;;23.2;;
61570;SDS011;47463;49.884;10.010;2024-01-30T21:15:00;28.1;;;22.8;;
61570;SDS011;47463;49.884;10.010;2024-01-30T21:20:00;26.5;;;22.9;;
61570;SDS011;47463;49.884;10.010;2024-01-30T21:25:01;25.7;;;23.7;;
61570;SDS011;47463;49.884;10.010;2024-01-30T21:30:00;27.2;;;24;;
61570;SDS011;47463;49.884;10.010;2024-01-30T21:35:00;25.9;;;23.6;;
61570;SDS011;47463;49.884;10.010;2024-01-30T21:40:00;25.9;;;23.6;;
61570;SDS011;47463;49.884;10.010;2024-01-30T21:45:00;24.9;;;22.8;;
61570;SDS011;47463;49.884;10.010;2024-01-30T21:50:00;22.6;;;21.7;;
61570;SDS011;47463;49.884;10.010;2024-01-30T21:55:00;16.6;;;17.2;;
61570;SDS011;47463;49.884;10.010;2024-01-30T22:00:00;20.1;;;19.3;;
61570;SDS011;47463;49.884;10.010;2024-01-30T22:05:00;19;;;18.9;;
61570;SDS011;47463;49.884;10.010;2024-01-30T22:10:00;19;;;18.9;;
61570;SDS011;47463;49.884;10.010;2024-01-30T22:15:00;16.7;;;17.1;;
61570;SDS011;47463;49.884;10.010;2024-01-30T22:20:00;16.1;;;17.3;;
61570;SDS011;47463;49.884;10.010;2024-01-30T22:25:00;19.3;;;17.2;;
61570;SDS011;47463;49.884;10.010;2024-01-30T22:30:00;17.6;;;17.7;;
61570;SDS011;47463;49.884;10.010;2024-01-30T22:35:00;17.7;;;17.6;;
61570;SDS011;47463;49.884;10.010;2024-01-30T22:40:00;17.7;;;17.6;;
61570;SDS011;47463;49.884;10.010;2024-01-30T22:45:00;20.2;;;18.4;;
61570;SDS011;47463;49.884;10.010;2024-01-30T22:50:00;23.1;;;18.3;;
61570;SDS011;47463;49.884;10.010;2024-01-30T22:55:00;18.8;;;18.2;;
61570;SDS011;47463;49.884;10.010;2024-01-30T23:00:00;19.4;;;19.1;;
61570;SDS011;47463;49.884;10.010;2024-01-30T23:05:00;20.6;;;18.8;;
61570;SDS011;47463;49.884;10.010;2024-01-30T23:10:00;20.6;;;18.8;;
61570;SDS011;47463;49.884;10.010;2024-01-30T23:15:00;24;;;19.8;;
61570;SDS011;47463;49.884;10.010;2024-01-30T23:20:00;20.3;;;18.5;;
61570;SDS011;47463;49.884;10.010;2024-01-30T23:25:00;18;;;18.1;;
61570;SDS011;47463;49.884;10.010;2024-01-30T23:30:00;21;;;18.1;;
61570;SDS011;47463;49.884;10.010;2024-01-30T23:35:00;18.8;;;18.2;;
61570;SDS011;47463;49.884;10.010;2024-01-30T23:40:00;18.8;;;18.2;;
61570;SDS011;47463;49.884;10.010;2024-01-30T23:45:00;18.7;;;17.6;;
61570;SDS011;47463;49.884;10.010;2024-01-30T23:50:00;18.2;;;18.9;;
61570;SDS011;47463;49.884;10.010;2024-01-30T23:55:00;24.7;;;19.9;;
